Time;durP1;ratioP1;P1;durP2;ratioP2;P2;SDS_P1;SDS_P2;PMS_P1;PMS_P2;Temp;Humidity;BMP_temperature;BMP_pressure;BME280_temperature;BME280_humidity;BME280_pressure;Samples;Min_cycle;Max_cycle;Signal;HPM_P1;HPM_P2
2022/10/11 00:03:30;;;;;;;19.05;1.98;;;;;;;9.76;100.00;101403.78;8303409;28;20049;-51
2022/10/11 00:07:30;;;;;;;14.30;2.08;;;;;;;9.33;100.00;101407.91;8293951;28;20104;-50
2022/10/11 00:11:31;;;;;;;18.60;1.75;;;;;;;9.27;100.00;101411.03;8291581;28;20182;-50
2022/10/11 00:15:32;;;;;;;8.15;1.80;;;;;;;9.13;100.00;101420.13;8282670;28;20045;-55
2022/10/11 00:19:33;;;;;;;12.63;1.88;;;;;;;9.48;100.00;101409.44;8281088;28;20520;-50
2022/10/11 00:23:34;;;;;;;14.95;1.65;;;;;;;8.98;100.00;101414.94;8286317;28;20431;-53
2022/10/11 00:27:36;;;;;;;15.43;1.60;;;;;;;8.88;100.00;101413.88;8293961;28;20044;-54
2022/10/11 00:31:37;;;;;;;18.52;2.22;;;;;;;9.06;100.00;101418.81;8288200;28;20101;-51
2022/10/11 00:35:40;;;;;;;5.75;1.25;;;;;;;8.82;100.00;101422.38;8294392;28;20041;-51
2022/10/11 00:39:41;;;;;;;3.15;1.00;;;;;;;8.54;100.00;101419.88;8293945;28;20406;-51
2022/10/11 00:43:42;;;;;;;5.22;1.40;;;;;;;8.67;100.00;101420.75;8294480;28;20412;-53
2022/10/11 00:47:43;;;;;;;9.75;1.45;;;;;;;8.84;100.00;101428.56;8293783;28;20030;-52
2022/10/11 00:51:50;;;;;;;5.18;1.67;;;;;;;8.68;100.00;101428.75;8293166;28;20041;-54
2022/10/11 00:55:57;;;;;;;15.35;1.63;;;;;;;8.36;100.00;101421.16;8292822;28;20088;-53
2022/10/11 00:59:58;;;;;;;4.50;1.85;;;;;;;8.09;100.00;101424.69;8289987;28;20037;-54
2022/10/11 01:04:01;;;;;;;5.00;1.73;;;;;;;8.61;100.00;101421.19;8294015;28;20030;-50
2022/10/11 01:08:02;;;;;;;12.23;1.65;;;;;;;8.36;100.00;101427.41;8294015;28;20037;-53
2022/10/11 01:12:11;;;;;;;6.57;1.45;;;;;;;8.13;100.00;101430.75;8273504;28;20069;-51
2022/10/11 01:16:22;;;;;;;10.38;1.83;;;;;;;8.11;100.00;101431.81;8288885;28;20395;-52
2022/10/11 01:33:35;;;;;;;6.70;1.30;;;;;;;8.04;100.00;101432.22;8386024;27;20184;-51
2022/10/11 01:37:42;;;;;;;14.13;1.90;;;;;;;8.27;100.00;101443.31;8384172;28;20143;-53
2022/10/11 01:41:50;;;;;;;10.63;2.10;;;;;;;8.19;100.00;101446.50;8377197;28;20037;-50
2022/10/11 01:45:53;;;;;;;11.75;1.85;;;;;;;7.92;100.00;101446.50;8352688;28;20063;-53
2022/10/11 01:49:57;;;;;;;6.93;1.75;;;;;;;7.85;100.00;101447.88;8354521;28;20037;-50
2022/10/11 01:54:17;;;;;;;14.00;2.05;;;;;;;7.79;100.00;101453.66;8352775;28;20052;-51
2022/10/11 01:58:35;;;;;;;11.02;2.20;;;;;;;7.99;100.00;101453.19;8353798;28;20051;-52
2022/10/11 02:03:15;;;;;;;13.80;1.90;;;;;;;7.78;100.00;101451.91;8378706;28;20036;-51
2022/10/11 02:07:35;;;;;;;7.93;1.88;;;;;;;7.76;100.00;101448.47;8363460;28;20033;-53
2022/10/11 02:11:37;;;;;;;16.02;2.67;;;;;;;7.98;100.00;101448.78;8333699;28;20037;-52
2022/10/11 02:15:40;;;;;;;6.63;2.45;;;;;;;7.69;100.00;101443.59;8351819;28;20045;-52
2022/10/11 02:19:44;;;;;;;16.17;3.50;;;;;;;7.74;100.00;101458.47;8351682;28;20041;-50
2022/10/11 02:23:52;;;;;;;14.40;3.20;;;;;;;7.72;100.00;101455.00;8333881;28;20133;-53
2022/10/11 02:27:56;;;;;;;13.70;3.58;;;;;;;7.60;100.00;101450.41;8355291;28;20071;-51
2022/10/11 02:31:59;;;;;;;12.88;3.55;;;;;;;7.73;100.00;101454.06;8349609;28;20037;-48
2022/10/11 02:36:10;;;;;;;20.88;4.45;;;;;;;7.83;100.00;101460.56;8349261;28;20048;-50
2022/10/11 02:40:32;;;;;;;23.38;3.95;;;;;;;7.70;100.00;101465.03;8348524;28;20060;-53
2022/10/11 02:44:39;;;;;;;19.38;3.53;;;;;;;7.58;100.00;101460.44;8297962;28;20042;-53
2022/10/11 02:48:40;;;;;;;15.07;3.40;;;;;;;7.36;100.00;101461.91;8294876;28;20116;-50
2022/10/11 02:52:40;;;;;;;13.63;3.53;;;;;;;7.60;100.00;101463.88;8295619;28;20041;-50
2022/10/11 02:56:41;;;;;;;9.70;4.03;;;;;;;7.69;100.00;101468.66;8296215;28;20033;-52
2022/10/11 03:00:42;;;;;;;7.90;3.47;;;;;;;7.80;100.00;101471.53;8323943;28;20038;-55
2022/10/11 03:04:43;;;;;;;18.00;4.50;;;;;;;7.41;100.00;101474.09;8298702;28;20034;-53
2022/10/11 03:08:43;;;;;;;12.32;3.78;;;;;;;7.46;100.00;101476.47;8294808;28;20053;-51
2022/10/11 03:12:44;;;;;;;8.60;3.92;;;;;;;7.60;100.00;101484.56;8295863;28;20044;-52
2022/10/11 03:16:44;;;;;;;9.45;3.45;;;;;;;7.49;100.00;101482.53;8294350;28;20096;-51
2022/10/11 03:20:45;;;;;;;7.25;3.90;;;;;;;7.57;100.00;101485.59;8294017;28;20173;-50
2022/10/11 03:24:45;;;;;;;12.15;4.40;;;;;;;7.64;100.00;101486.94;8294576;28;20037;-53
2022/10/11 03:28:46;;;;;;;9.07;3.60;;;;;;;7.61;100.00;101492.53;8304555;28;20029;-51
2022/10/11 03:32:47;;;;;;;15.05;3.92;;;;;;;7.49;100.00;101496.00;8325728;28;20479;-50
2022/10/11 03:36:47;;;;;;;16.08;4.25;;;;;;;7.84;100.00;101501.81;8325822;28;20049;-51
2022/10/11 03:40:48;;;;;;;5.72;3.03;;;;;;;7.68;100.00;101499.25;8325554;28;20040;-54
2022/10/11 03:44:50;;;;;;;7.13;3.10;;;;;;;7.66;100.00;101506.53;8295327;28;20112;-52
2022/10/11 03:48:51;;;;;;;6.90;3.38;;;;;;;7.77;100.00;101504.03;8294148;28;20042;-52
2022/10/11 03:52:51;;;;;;;10.32;3.97;;;;;;;7.82;100.00;101507.31;8292284;28;20048;-52
2022/10/11 03:56:52;;;;;;;7.30;3.28;;;;;;;7.70;100.00;101509.91;8325748;28;20121;-50
2022/10/11 04:00:52;;;;;;;14.38;3.90;;;;;;;7.67;100.00;101513.66;8322037;28;20053;-51
2022/10/11 04:04:53;;;;;;;16.35;4.88;;;;;;;7.70;100.00;101507.22;8320145;28;20041;-49
2022/10/11 04:08:53;;;;;;;11.40;4.85;;;;;;;7.83;100.00;101509.03;8289611;28;20030;-50
2022/10/11 04:12:54;;;;;;;11.10;5.63;;;;;;;7.94;100.00;101509.16;8288648;28;20083;-51
2022/10/11 04:16:55;;;;;;;19.27;5.47;;;;;;;8.14;100.00;101517.81;8283625;28;20051;-52
2022/10/11 04:20:55;;;;;;;10.55;4.57;;;;;;;7.95;100.00;101519.00;8293091;28;20041;-50
2022/10/11 04:24:57;;;;;;;9.57;4.00;;;;;;;7.96;100.00;101514.47;8293690;28;20050;-50
2022/10/11 04:28:57;;;;;;;11.07;3.95;;;;;;;8.04;100.00;101518.41;8304234;28;20073;-50
2022/10/11 04:32:58;;;;;;;13.27;4.50;;;;;;;8.03;100.00;101530.13;8324387;28;20483;-52
2022/10/11 04:36:58;;;;;;;13.43;4.40;;;;;;;8.21;100.00;101530.78;8313615;28;20045;-52
2022/10/11 04:41:08;;;;;;;16.80;4.60;;;;;;;8.17;100.00;101533.75;8289291;28;20046;-50
2022/10/11 04:45:09;;;;;;;10.70;4.00;;;;;;;8.12;100.00;101525.09;8292922;28;20034;-51
2022/10/11 04:49:10;;;;;;;18.02;4.50;;;;;;;8.03;100.00;101532.81;8288252;28;20140;-50
2022/10/11 04:53:10;;;;;;;18.25;5.00;;;;;;;8.02;100.00;101531.09;8292423;28;20117;-50
2022/10/11 04:57:11;;;;;;;12.38;3.88;;;;;;;7.78;100.00;101543.44;8290830;28;20038;-50
2022/10/11 05:01:11;;;;;;;15.38;4.68;;;;;;;7.49;100.00;101546.25;8323754;28;20096;-50
2022/10/11 05:05:16;;;;;;;10.27;3.58;;;;;;;7.27;100.00;101546.72;8320794;28;20053;-50
2022/10/11 05:09:17;;;;;;;16.45;4.78;;;;;;;7.36;100.00;101556.03;8291057;28;20034;-49
2022/10/11 05:13:17;;;;;;;18.13;4.78;;;;;;;7.22;100.00;101556.91;8291945;28;20052;-51
2022/10/11 05:17:18;;;;;;;14.70;5.18;;;;;;;7.22;100.00;101570.34;8291574;28;20038;-50
2022/10/11 05:21:23;;;;;;;16.55;4.95;;;;;;;7.23;100.00;101568.53;8299121;28;20041;-52
2022/10/11 05:25:23;;;;;;;15.07;5.10;;;;;;;7.21;100.00;101571.31;8309196;28;20038;-50
2022/10/11 05:29:24;;;;;;;19.20;5.32;;;;;;;7.39;100.00;101570.19;8302963;28;20043;-50
2022/10/11 05:33:25;;;;;;;21.08;5.63;;;;;;;7.52;100.00;101573.84;8311983;28;20042;-50
2022/10/11 05:37:25;;;;;;;19.23;5.45;;;;;;;7.41;100.00;101587.06;8286224;28;20065;-54
2022/10/11 05:41:26;;;;;;;12.85;5.13;;;;;;;7.37;100.00;101573.91;8314008;28;20547;-49
2022/10/11 05:45:26;;;;;;;11.98;5.85;;;;;;;7.27;100.00;101583.50;8281630;28;20092;-50
2022/10/11 05:49:27;;;;;;;14.63;5.60;;;;;;;7.22;100.00;101581.09;8283402;28;20033;-50
2022/10/11 05:53:28;;;;;;;15.82;5.70;;;;;;;7.30;100.00;101589.56;8290191;28;20499;-50
2022/10/11 05:57:29;;;;;;;11.82;5.68;;;;;;;7.27;100.00;101579.00;8304802;28;20041;-50
2022/10/11 06:01:29;;;;;;;14.13;5.72;;;;;;;7.33;100.00;101588.50;8319243;28;20418;-50
2022/10/11 06:05:30;;;;;;;11.43;5.40;;;;;;;7.33;100.00;101594.78;8315353;28;20541;-50
2022/10/11 06:09:33;;;;;;;13.18;6.63;;;;;;;7.34;100.00;101607.25;8291020;28;20041;-50
2022/10/11 06:13:34;;;;;;;15.60;7.20;;;;;;;7.29;100.00;101603.97;8294483;28;20044;-50
2022/10/11 06:17:35;;;;;;;30.05;9.00;;;;;;;7.39;100.00;101605.16;8285173;28;20048;-51
2022/10/11 06:21:35;;;;;;;35.42;9.13;;;;;;;7.30;100.00;101616.47;8291002;28;20045;-54
2022/10/11 06:25:36;;;;;;;25.45;7.63;;;;;;;7.35;100.00;101625.09;8288346;28;20120;-53
2022/10/11 06:29:37;;;;;;;24.05;7.38;;;;;;;7.45;100.00;101626.31;8289515;28;20056;-51
2022/10/11 06:33:37;;;;;;;46.55;7.22;;;;;;;7.57;100.00;101633.59;8279306;28;20046;-49
2022/10/11 06:37:38;;;;;;;52.75;9.30;;;;;;;7.66;100.00;101630.34;8292980;28;20040;-51
2022/10/11 06:41:39;;;;;;;56.25;10.80;;;;;;;7.66;100.00;101630.34;8278847;28;20049;-51
2022/10/11 06:45:39;;;;;;;52.40;8.80;;;;;;;7.75;100.00;101637.84;8301728;28;20080;-52
2022/10/11 06:49:40;;;;;;;52.30;8.57;;;;;;;7.58;100.00;101639.84;8290501;28;20147;-50
2022/10/11 06:53:41;;;;;;;53.53;9.15;;;;;;;7.58;100.00;101646.09;8284231;28;20077;-50
2022/10/11 06:57:41;;;;;;;46.80;8.20;;;;;;;7.60;100.00;101656.78;8292317;28;20059;-50
2022/10/11 07:01:42;;;;;;;33.90;6.93;;;;;;;7.78;100.00;101661.88;8315117;28;20041;-54
2022/10/11 07:05:43;;;;;;;29.17;7.18;;;;;;;7.82;100.00;101667.94;8301830;28;20033;-50
2022/10/11 07:09:43;;;;;;;24.95;6.80;;;;;;;7.72;100.00;101673.03;8292329;28;20038;-50
2022/10/11 07:13:49;;;;;;;27.50;7.60;;;;;;;7.91;100.00;101681.72;8288405;28;20503;-50
2022/10/11 07:17:50;;;;;;;30.23;9.25;;;;;;;8.31;100.00;101676.53;8284511;28;20042;-51
2022/10/11 07:21:50;;;;;;;27.40;8.50;;;;;;;8.69;100.00;101678.47;8284827;28;20117;-51
2022/10/11 07:25:53;;;;;;;32.70;9.32;;;;;;;8.92;100.00;101685.03;8283745;28;20042;-50
2022/10/11 07:29:54;;;;;;;32.60;14.38;;;;;;;8.93;100.00;101687.66;8292886;28;20042;-50
2022/10/11 07:33:54;;;;;;;36.28;11.63;;;;;;;8.91;100.00;101689.56;8289929;28;20041;-54
2022/10/11 07:37:55;;;;;;;28.05;8.95;;;;;;;9.04;100.00;101689.63;8293894;28;20495;-50
2022/10/11 07:41:55;;;;;;;43.78;11.55;;;;;;;9.14;100.00;101698.84;8291817;28;20069;-50
2022/10/11 07:45:59;;;;;;;39.92;10.10;;;;;;;9.38;100.00;101694.47;8284173;28;20091;-51
2022/10/11 07:50:00;;;;;;;31.43;7.90;;;;;;;9.75;100.00;101702.66;8290123;28;20133;-53
2022/10/11 07:54:02;;;;;;;22.95;6.07;;;;;;;10.22;100.00;101693.94;8291140;28;20034;-50
2022/10/11 07:58:03;;;;;;;18.58;5.50;;;;;;;10.50;100.00;101704.50;8294876;28;20156;-54
2022/10/11 08:02:03;;;;;;;23.17;5.35;;;;;;;10.80;100.00;101690.56;8298134;28;20045;-53
2022/10/11 08:06:07;;;;;;;17.00;5.68;;;;;;;10.92;100.00;101697.78;8290356;28;20030;-53
2022/10/11 08:10:08;;;;;;;19.77;5.63;;;;;;;10.79;100.00;101705.91;8290244;28;20069;-54
2022/10/11 08:14:10;;;;;;;21.65;6.28;;;;;;;11.17;100.00;101694.94;8290245;28;20087;-53
2022/10/11 08:18:10;;;;;;;21.90;6.20;;;;;;;11.44;100.00;101699.13;8289690;28;20463;-54
2022/10/11 08:22:11;;;;;;;16.50;6.75;;;;;;;11.57;100.00;101708.06;8289154;28;20068;-52
2022/10/11 08:26:12;;;;;;;16.15;5.78;;;;;;;11.90;100.00;101718.16;8290121;28;20034;-53
2022/10/11 08:30:13;;;;;;;16.10;5.45;;;;;;;12.25;100.00;101708.09;8294887;28;20046;-54
2022/10/11 08:34:14;;;;;;;16.35;6.05;;;;;;;12.23;98.52;101714.63;8316769;28;20037;-53
2022/10/11 08:38:16;;;;;;;16.40;6.15;;;;;;;12.41;98.96;101702.31;8320129;28;20095;-52
2022/10/11 08:42:28;;;;;;;17.73;6.72;;;;;;;12.44;96.55;101718.34;8324177;28;20123;-53
2022/10/11 08:46:32;;;;;;;28.35;7.15;;;;;;;12.58;99.00;101712.66;8324076;28;20057;-54
2022/10/11 08:50:33;;;;;;;22.30;6.50;;;;;;;12.89;96.21;101710.03;8344873;28;20044;-53
2022/10/11 08:54:50;;;;;;;26.15;7.38;;;;;;;12.82;95.15;101713.38;8366772;28;20044;-52
2022/10/11 09:03:37;;;;;;;29.65;7.38;;;;;;;16.58;78.48;101703.50;8374138;27;20492;-51
2022/10/11 09:08:01;;;;;;;23.17;6.88;;;;;;;17.51;74.77;101713.19;8363804;28;20037;-51
2022/10/11 09:12:17;;;;;;;;;;;;;;;18.76;70.40;101708.13;8375896;28;20572;-52
2022/10/11 09:16:46;;;;;;;21.80;6.22;;;;;;;18.85;68.16;101707.16;8376561;28;19966;-51
2022/10/11 09:21:03;;;;;;;21.60;5.93;;;;;;;19.68;66.67;101706.16;8381305;28;20045;-52
2022/10/11 09:25:22;;;;;;;21.15;6.47;;;;;;;19.56;65.14;101702.03;8381563;28;20048;-51
2022/10/11 09:30:03;;;;;;;31.08;7.32;;;;;;;19.52;66.15;101699.63;8345095;28;20051;-50
2022/10/11 09:34:10;;;;;;;31.08;7.72;;;;;;;20.79;61.65;101704.28;8370561;28;20083;-50
2022/10/11 09:38:37;;;;;;;24.67;9.80;;;;;;;21.27;60.64;101693.09;8380055;28;20460;-52
2022/10/11 09:42:37;;;;;;;21.40;7.72;;;;;;;20.96;60.64;101711.50;8372748;28;20045;-53
2022/10/11 09:46:58;;;;;;;28.48;8.27;;;;;;;20.82;61.77;101709.44;8379172;28;20075;-51
2022/10/11 09:51:07;;;;;;;22.73;8.35;;;;;;;22.17;58.08;101709.63;8377260;28;20044;-51
2022/10/11 09:55:49;;;;;;;22.58;8.55;;;;;;;22.10;58.72;101714.16;8373878;28;20094;-52
2022/10/11 10:04:22;;;;;;;26.67;9.88;;;;;;;22.38;58.30;101715.25;8319368;27;20407;-51
2022/10/11 10:08:23;;;;;;;38.72;10.65;;;;;;;21.52;60.54;101713.91;8310166;28;20034;-52
2022/10/11 10:12:27;;;;;;;27.95;10.57;;;;;;;21.66;61.24;101707.63;8296117;28;20049;-52
2022/10/11 10:16:31;;;;;;;32.88;11.77;;;;;;;20.91;64.15;101713.88;8281356;28;20061;-52
2022/10/11 10:20:34;;;;;;;30.33;13.25;;;;;;;20.27;65.54;101714.06;8286989;28;20038;-54
2022/10/11 10:24:39;;;;;;;23.77;11.02;;;;;;;22.03;61.75;101713.22;8298530;28;20129;-51
2022/10/11 10:29:15;;;;;;;28.65;13.02;;;;;;;21.66;60.38;101707.63;8326528;28;20072;-51
2022/10/11 10:33:18;;;;;;;25.80;13.70;;;;;;;22.84;58.42;101703.03;8340745;28;20424;-51
2022/10/11 10:37:26;;;;;;;25.70;13.02;;;;;;;22.47;57.29;101705.88;8341462;28;20471;-51
2022/10/11 10:41:27;;;;;;;29.50;12.75;;;;;;;22.78;56.83;101702.97;8292132;28;20060;-55
2022/10/11 10:45:39;;;;;;;34.53;12.90;;;;;;;22.26;58.54;101702.97;8297069;28;20045;-52
2022/10/11 10:49:44;;;;;;;29.92;9.95;;;;;;;21.84;58.04;101702.72;8309641;28;20155;-54
2022/10/11 10:53:55;;;;;;;35.55;14.15;;;;;;;20.38;59.77;101708.22;8311817;28;20037;-52
2022/10/11 10:58:35;;;;;;;39.05;17.80;;;;;;;18.71;65.91;101696.78;8304207;28;20041;-51
2022/10/11 11:02:59;;;;;;;23.33;8.63;;;;;;;16.58;69.70;101703.50;8312179;28;20057;-51
2022/10/11 11:07:23;;;;;;;25.30;4.85;;;;;;;17.07;65.65;101692.16;8343786;28;20384;-52
2022/10/11 11:11:48;;;;;;;22.63;7.20;;;;;;;20.34;59.00;101684.88;8337893;28;20079;-51
2022/10/11 11:16:04;;;;;;;24.73;5.55;;;;;;;18.87;60.34;101689.50;8293034;28;20411;-51
2022/10/11 11:20:30;;;;;;;15.10;6.63;;;;;;;20.01;58.72;101685.94;8289854;28;20040;-53
2022/10/11 11:24:50;;;;;;;15.30;5.05;;;;;;;21.38;56.11;101676.19;8310354;28;20128;-54
2022/10/11 11:29:06;;;;;;;19.13;5.88;;;;;;;22.75;53.37;101676.63;8312313;28;20176;-52
2022/10/11 11:37:33;;;;;;;23.77;6.63;;;;;;;17.80;62.44;101691.88;8326960;27;20412;-51
2022/10/11 11:41:40;;;;;;;17.58;6.10;;;;;;;16.70;65.45;101677.72;8313260;28;20080;-54
2022/10/11 11:45:48;;;;;;;16.17;3.33;;;;;;;18.03;62.44;101676.69;8307693;28;20532;-51
2022/10/11 11:49:58;;;;;;;16.05;5.10;;;;;;;20.66;55.86;101660.91;8307678;28;20037;-54
2022/10/11 11:54:24;;;;;;;14.02;5.78;;;;;;;21.54;52.58;101666.94;8300836;28;20041;-51
2022/10/11 11:58:38;;;;;;;16.55;5.72;;;;;;;21.18;54.69;101663.91;8311749;28;20129;-54
2022/10/11 12:03:03;;;;;;;17.40;7.68;;;;;;;22.59;53.23;101659.41;8312715;28;20136;-51
2022/10/11 12:07:10;;;;;;;22.13;7.38;;;;;;;23.09;50.97;101648.41;8305862;28;20521;-53
2022/10/11 12:11:21;;;;;;;12.73;4.30;;;;;;;22.98;49.22;101647.00;8311049;28;20041;-54
2022/10/11 12:15:25;;;;;;;16.20;5.40;;;;;;;23.49;49.69;101641.44;8313472;28;20045;-54
2022/10/11 12:19:26;;;;;;;;;;;;;;;23.03;46.14;101646.44;8313023;28;20466;-53
2022/10/11 12:27:45;;;;;;;6.18;1.88;;;;;;;22.66;45.62;101641.91;8297238;28;20389;-52
2022/10/11 12:40:41;;;;;;;10.27;2.35;;;;;;;20.31;52.26;101627.53;8384292;27;20405;-53
2022/10/11 12:45:21;;;;;;;11.85;2.53;;;;;;;18.81;53.57;101618.03;8376561;28;20045;-51
2022/10/11 12:49:50;;;;;;;10.82;1.52;;;;;;;17.43;54.33;101626.47;8377868;28;20051;-52
2022/10/11 12:54:22;;;;;;;14.02;2.10;;;;;;;17.09;58.55;101617.22;8375542;28;20048;-55
2022/10/11 12:58:27;;;;;;;12.18;2.10;;;;;;;16.66;57.55;101611.63;8377898;28;20500;-53
2022/10/11 13:02:39;;;;;;;8.65;2.08;;;;;;;16.33;59.33;101608.59;8377444;28;20048;-54
2022/10/11 13:06:52;;;;;;;7.60;2.35;;;;;;;16.31;59.64;101599.72;8372413;28;20036;-53
2022/10/11 13:10:57;;;;;;;10.88;2.25;;;;;;;16.12;61.06;101597.94;8377689;28;20409;-54
2022/10/11 13:15:08;;;;;;;12.48;2.13;;;;;;;16.23;60.86;101596.88;8376214;28;20064;-52
2022/10/11 13:19:12;;;;;;;10.52;1.85;;;;;;;16.17;59.47;101586.56;8378830;28;20127;-51
2022/10/11 13:23:34;;;;;;;11.90;1.60;;;;;;;16.02;59.38;101577.16;8377552;28;20537;-55
2022/10/11 13:27:36;;;;;;;12.32;2.45;;;;;;;16.14;61.83;101585.00;8373568;28;20127;-52
2022/10/11 13:31:39;;;;;;;12.32;2.65;;;;;;;16.19;61.72;101590.03;8378859;28;20037;-52
2022/10/11 13:35:40;;;;;;;13.75;2.17;;;;;;;16.10;61.51;101585.47;8372982;28;20115;-55
2022/10/11 13:39:41;;;;;;;13.07;2.35;;;;;;;16.15;60.55;101594.03;8378966;28;20095;-54
2022/10/11 13:43:42;;;;;;;11.35;2.10;;;;;;;16.04;61.08;101586.06;8379283;28;20068;-55
2022/10/11 13:47:44;;;;;;;11.30;2.67;;;;;;;16.04;61.08;101581.44;8377094;28;20033;-54
2022/10/11 13:51:57;;;;;;;12.18;2.92;;;;;;;16.09;59.55;101572.81;8357420;28;20083;-54
2022/10/11 13:56:00;;;;;;;14.52;4.68;;;;;;;16.28;60.73;101583.66;8355833;28;20048;-54
2022/10/11 14:00:09;;;;;;;8.77;3.30;;;;;;;16.08;61.85;101576.56;8356501;28;20036;-53
2022/10/11 14:04:16;;;;;;;14.23;4.23;;;;;;;16.20;63.74;101576.22;8351188;28;20041;-54
2022/10/11 14:08:33;;;;;;;16.60;4.45;;;;;;;16.12;62.35;101572.50;8358004;28;20041;-55
2022/10/11 14:12:39;;;;;;;15.70;4.65;;;;;;;16.16;63.06;101571.22;8358440;28;20033;-54
2022/10/11 14:16:39;;;;;;;18.00;5.10;;;;;;;16.28;62.66;101572.75;8358056;28;20086;-55
2022/10/11 14:20:40;;;;;;;11.55;3.72;;;;;;;16.22;61.42;101563.25;8357128;28;20116;-54
2022/10/11 14:24:42;;;;;;;16.10;4.65;;;;;;;16.30;62.48;101562.50;8357523;28;20537;-55
2022/10/11 14:28:42;;;;;;;18.95;3.92;;;;;;;16.18;61.78;101561.00;8357474;28;20045;-54
2022/10/11 14:32:44;;;;;;;13.10;4.40;;;;;;;16.14;61.49;101560.47;8355595;28;20083;-54
2022/10/11 14:36:46;;;;;;;17.30;4.40;;;;;;;16.04;62.49;101553.31;8357276;28;20517;-53
2022/10/11 14:40:46;;;;;;;19.75;5.13;;;;;;;16.04;62.38;101547.88;8348390;28;20033;-54
2022/10/11 14:44:47;;;;;;;18.63;5.03;;;;;;;16.04;61.66;101547.88;8355364;28;20108;-55
2022/10/11 14:48:48;;;;;;;17.05;3.85;;;;;;;15.86;61.03;101552.38;8356137;28;20037;-55
2022/10/11 14:52:48;;;;;;;19.02;5.40;;;;;;;15.77;61.73;101554.16;8357450;28;20041;-53
2022/10/11 14:56:51;;;;;;;17.23;5.00;;;;;;;15.72;62.01;101553.72;8356354;28;20405;-55
2022/10/11 15:00:52;;;;;;;9.80;4.10;;;;;;;15.76;62.45;101554.31;8344716;28;20137;-55
2022/10/11 15:04:53;;;;;;;16.40;5.13;;;;;;;15.70;63.64;101551.16;8350098;28;20102;-54
2022/10/11 15:08:54;;;;;;;15.65;5.00;;;;;;;15.67;64.08;101539.66;8347342;28;20548;-55
2022/10/11 15:12:55;;;;;;;14.25;4.35;;;;;;;15.64;63.69;101546.28;8352938;28;20056;-55
2022/10/11 15:16:56;;;;;;;15.00;4.90;;;;;;;15.65;63.58;101542.53;8350395;28;20102;-55
2022/10/11 15:20:57;;;;;;;13.70;5.03;;;;;;;15.60;64.57;101544.88;8349966;28;20102;-55
2022/10/11 15:24:59;;;;;;;13.13;4.78;;;;;;;15.73;63.90;101539.06;8349371;28;20592;-54
2022/10/11 15:28:59;;;;;;;21.90;5.32;;;;;;;15.66;65.07;101544.28;8340593;28;20132;-55
2022/10/11 15:33:01;;;;;;;16.08;5.20;;;;;;;15.54;64.88;101536.41;8355228;28;20555;-52
2022/10/11 15:37:01;;;;;;;11.40;4.57;;;;;;;15.48;64.66;101535.16;8350734;28;20041;-55
2022/10/11 15:41:02;;;;;;;18.10;4.50;;;;;;;15.44;65.27;101538.31;8349772;28;20906;-55
2022/10/11 15:45:03;;;;;;;18.20;4.68;;;;;;;15.47;65.88;101533.41;8344955;28;20147;-52
2022/10/11 15:49:11;;;;;;;13.25;4.07;;;;;;;15.44;67.01;101524.69;8354108;28;20114;-54
2022/10/11 15:53:15;;;;;;;10.48;3.83;;;;;;;15.36;66.77;101529.97;8349785;28;20060;-51
2022/10/11 15:57:17;;;;;;;11.48;4.32;;;;;;;15.32;66.86;101523.97;8356910;28;20033;-55
2022/10/11 16:01:19;;;;;;;15.50;4.82;;;;;;;15.28;67.21;101522.50;8383985;28;20143;-54
2022/10/11 16:05:23;;;;;;;15.32;4.38;;;;;;;15.22;68.36;101528.56;8381393;28;20062;-55
2022/10/11 16:09:24;;;;;;;14.48;4.03;;;;;;;15.08;69.66;101520.84;8383261;28;20528;-55
2022/10/11 16:13:25;;;;;;;12.85;3.40;;;;;;;15.02;69.35;101526.88;8379912;28;20040;-54
2022/10/11 16:17:26;;;;;;;9.27;3.80;;;;;;;14.99;68.84;101526.28;8382803;28;20045;-55
2022/10/11 16:21:27;;;;;;;9.38;3.53;;;;;;;14.87;70.30;101525.59;8382574;28;20044;-53
2022/10/11 16:25:28;;;;;;;15.50;4.38;;;;;;;14.75;71.55;101524.00;8381978;28;20613;-55
2022/10/11 16:29:29;;;;;;;13.73;4.13;;;;;;;14.56;72.60;101526.72;8381029;28;20067;-55
2022/10/11 16:33:30;;;;;;;11.93;3.78;;;;;;;14.23;75.72;101523.47;8339611;28;20652;-54
2022/10/11 16:37:31;;;;;;;13.10;3.40;;;;;;;14.14;75.27;101530.59;8339780;28;20121;-54
2022/10/11 16:41:32;;;;;;;21.02;4.93;;;;;;;13.67;79.90;101531.28;8346713;28;20139;-55
2022/10/11 16:45:34;;;;;;;13.48;4.57;;;;;;;13.60;80.20;101543.66;8347789;28;20557;-54
2022/10/11 16:49:35;;;;;;;18.80;4.72;;;;;;;13.47;80.78;101527.59;8341958;28;20037;-55
2022/10/11 16:53:35;;;;;;;13.65;4.28;;;;;;;13.20;81.68;101535.44;8348049;28;20102;-55
2022/10/11 16:57:36;;;;;;;11.43;4.68;;;;;;;13.08;82.15;101541.03;8346931;28;20124;-51
2022/10/11 17:01:37;;;;;;;10.52;4.00;;;;;;;12.82;83.45;101534.25;8347190;28;20044;-54
2022/10/11 17:05:38;;;;;;;15.45;4.57;;;;;;;12.64;84.96;101538.50;8346120;28;20060;-54
2022/10/11 17:09:41;;;;;;;15.05;4.38;;;;;;;12.51;85.97;101530.56;8361456;28;20044;-54
2022/10/11 17:13:42;;;;;;;17.60;4.57;;;;;;;11.92;88.45;101531.88;8340706;28;20099;-54
2022/10/11 17:17:43;;;;;;;12.25;4.50;;;;;;;11.43;91.30;101532.22;8348123;28;20052;-51
2022/10/11 17:21:44;;;;;;;17.67;4.93;;;;;;;11.17;94.40;101527.13;8348858;28;20037;-51
2022/10/11 17:25:45;;;;;;;13.45;4.30;;;;;;;11.17;94.87;101519.03;8348576;28;20041;-51
2022/10/11 17:29:46;;;;;;;24.95;5.00;;;;;;;11.48;93.50;101527.31;8352690;28;20032;-53
2022/10/11 17:33:47;;;;;;;14.93;4.63;;;;;;;11.78;91.26;101527.56;8352466;28;20033;-51
2022/10/11 17:37:48;;;;;;;13.43;4.57;;;;;;;11.34;93.16;101529.38;8353058;28;20355;-53
2022/10/11 17:41:50;;;;;;;12.68;4.60;;;;;;;10.95;94.96;101527.09;8353849;28;20059;-55
2022/10/11 17:45:55;;;;;;;16.67;5.38;;;;;;;11.13;95.48;101526.50;8358781;28;20037;-51
2022/10/11 17:49:56;;;;;;;11.95;4.30;;;;;;;11.04;92.86;101526.38;8350431;28;20599;-52
2022/10/11 17:53:57;;;;;;;11.85;4.68;;;;;;;10.83;95.91;101528.88;8354634;28;20391;-51
2022/10/11 17:57:58;;;;;;;14.63;4.50;;;;;;;10.72;96.18;101530.66;8354203;28;20053;-52
2022/10/11 18:01:59;;;;;;;13.77;4.80;;;;;;;10.50;97.99;101520.63;8344253;28;20562;-51
2022/10/11 18:06:05;;;;;;;15.68;5.65;;;;;;;10.25;98.30;101511.78;8354341;28;20045;-52
2022/10/11 18:10:06;;;;;;;14.57;5.00;;;;;;;10.52;97.36;101517.81;8352564;28;20048;-52
2022/10/11 18:14:07;;;;;;;12.65;5.35;;;;;;;10.48;96.45;101517.19;8352212;28;20037;-53
2022/10/11 18:18:10;;;;;;;15.68;5.20;;;;;;;10.61;97.91;101515.25;8352952;28;20036;-52
2022/10/11 18:22:11;;;;;;;14.88;4.25;;;;;;;10.31;94.62;101509.47;8353814;28;20315;-51
2022/10/11 18:26:18;;;;;;;13.48;4.63;;;;;;;9.93;100.00;101516.81;8354486;28;20444;-52
2022/10/11 18:30:19;;;;;;;16.60;5.10;;;;;;;10.30;99.26;101507.75;8351956;28;20041;-52
2022/10/11 18:34:20;;;;;;;16.65;5.35;;;;;;;10.12;99.41;101508.25;8352840;28;20047;-54
2022/10/11 18:38:21;;;;;;;15.18;5.57;;;;;;;10.12;98.24;101516.38;8353151;28;20560;-52
2022/10/11 18:42:22;;;;;;;10.40;5.15;;;;;;;9.69;99.89;101521.28;8348725;28;20029;-50
2022/10/11 18:46:24;;;;;;;18.55;5.70;;;;;;;9.53;100.00;101520.66;8352272;28;20041;-53
2022/10/11 18:50:25;;;;;;;22.38;7.40;;;;;;;9.52;100.00;101525.19;8349238;28;20041;-51
2022/10/11 18:54:25;;;;;;;20.20;7.55;;;;;;;9.37;100.00;101522.75;8351308;28;20041;-51
2022/10/11 18:58:28;;;;;;;16.00;6.50;;;;;;;9.43;100.00;101520.44;8347358;28;20104;-51
2022/10/11 19:02:29;;;;;;;15.65;5.88;;;;;;;9.81;100.00;101525.81;8345676;28;20060;-52
2022/10/11 19:06:35;;;;;;;17.58;6.70;;;;;;;9.72;98.78;101526.47;8353404;28;20047;-51
2022/10/11 19:10:36;;;;;;;20.13;8.05;;;;;;;9.42;100.00;101523.25;8352693;28;20064;-50
2022/10/11 19:14:37;;;;;;;20.85;6.53;;;;;;;9.26;100.00;101528.00;8352543;28;20120;-51
2022/10/11 19:18:39;;;;;;;19.00;6.93;;;;;;;9.16;100.00;101535.03;8350465;28;20045;-53
2022/10/11 19:22:40;;;;;;;24.63;6.80;;;;;;;9.08;100.00;101513.09;8352242;28;20055;-53
2022/10/11 19:26:41;;;;;;;20.67;6.07;;;;;;;9.22;100.00;101523.81;8355328;28;20592;-53